Time;durP1;ratioP1;P1;durP2;ratioP2;P2;SDS_P1;SDS_P2;PMS_P1;PMS_P2;Temp;Humidity;BMP_temperature;BMP_pressure;BME280_temperature;BME280_humidity;BME280_pressure;Samples;Min_cycle;Max_cycle;Signal;HPM_P1;HPM_P2
2021/12/09 00:00:01;;;;;;;11.55;8.35;;;;;;;;;;4816990;29;20142;-76
2021/12/09 00:02:29;;;;;;;16.40;9.18;;;;;;;;;;4809185;29;20093;-75
2021/12/09 00:04:57;;;;;;;13.35;9.23;;;;;;;;;;4809293;29;20369;-75
2021/12/09 00:07:24;;;;;;;16.50;10.23;;;;;;;;;;4808648;29;20142;-75
2021/12/09 00:09:50;;;;;;;13.20;8.63;;;;;;;;;;4825848;29;20058;-75
2021/12/09 00:12:17;;;;;;;15.43;8.48;;;;;;;;;;4811049;29;20447;-75
2021/12/09 00:14:43;;;;;;;15.73;8.60;;;;;;;;;;4842898;29;20046;-76
2021/12/09 00:17:10;;;;;;;13.73;9.10;;;;;;;;;;4843277;29;20050;-76
2021/12/09 00:19:38;;;;;;;14.20;8.85;;;;;;;;;;4827226;29;20479;-75
2021/12/09 00:22:06;;;;;;;15.25;9.02;;;;;;;;;;4827252;29;20061;-75
2021/12/09 00:24:32;;;;;;;14.65;9.38;;;;;;;;;;4826659;29;20050;-75
2021/12/09 00:26:58;;;;;;;18.67;9.52;;;;;;;;;;4826776;29;20478;-75
2021/12/09 00:29:25;;;;;;;16.35;9.38;;;;;;;;;;4826631;29;20118;-74
2021/12/09 00:31:51;;;;;;;14.13;9.27;;;;;;;;;;4843222;29;20058;-75
2021/12/09 00:34:19;;;;;;;12.88;8.75;;;;;;;;;;4827272;29;20053;-75
2021/12/09 00:36:57;;;;;;;14.82;9.32;;;;;;;;;;4828146;29;20097;-75
2021/12/09 00:39:24;;;;;;;13.38;9.00;;;;;;;;;;4826773;29;20360;-75
2021/12/09 00:41:50;;;;;;;14.25;8.57;;;;;;;;;;4823456;29;20046;-76
2021/12/09 00:44:16;;;;;;;16.52;9.48;;;;;;;;;;4830393;29;20050;-74
2021/12/09 00:46:42;;;;;;;14.55;10.02;;;;;;;;;;4829986;29;20068;-75
2021/12/09 00:49:08;;;;;;;18.38;9.80;;;;;;;;;;4829802;29;20049;-75
2021/12/09 00:51:35;;;;;;;18.40;10.32;;;;;;;;;;4829737;29;20050;-75
2021/12/09 00:54:01;;;;;;;13.50;9.40;;;;;;;;;;4843166;29;20042;-75
2021/12/09 00:56:27;;;;;;;15.30;8.93;;;;;;;;;;4829694;29;20061;-76
2021/12/09 00:58:55;;;;;;;13.60;9.77;;;;;;;;;;4830010;29;20053;-76
2021/12/09 01:01:22;;;;;;;14.30;9.77;;;;;;;;;;4829934;29;20093;-76
2021/12/09 01:03:48;;;;;;;16.40;9.95;;;;;;;;;;4830156;29;20111;-76
2021/12/09 01:06:14;;;;;;;13.68;9.40;;;;;;;;;;4828833;29;20062;-75
2021/12/09 01:08:41;;;;;;;15.20;10.13;;;;;;;;;;4829409;29;20483;-75
2021/12/09 01:11:07;;;;;;;12.82;9.52;;;;;;;;;;4829276;29;20050;-74
2021/12/09 01:13:34;;;;;;;15.95;9.93;;;;;;;;;;4830172;29;20057;-75
2021/12/09 01:16:00;;;;;;;18.15;10.60;;;;;;;;;;4829590;29;20113;-74
2021/12/09 01:18:26;;;;;;;16.52;9.85;;;;;;;;;;4845811;29;20058;-75
2021/12/09 01:20:52;;;;;;;13.25;9.52;;;;;;;;;;4829426;29;20062;-76
2021/12/09 01:23:18;;;;;;;15.90;10.07;;;;;;;;;;4829380;29;20445;-76
2021/12/09 01:25:44;;;;;;;16.10;10.07;;;;;;;;;;4829596;29;20429;-74
2021/12/09 01:28:18;;;;;;;13.63;9.10;;;;;;;;;;4828937;29;20054;-75
2021/12/09 01:30:47;;;;;;;16.83;9.80;;;;;;;;;;4829523;29;20100;-75
2021/12/09 01:33:13;;;;;;;19.95;11.10;;;;;;;;;;4828821;29;20057;-76
2021/12/09 01:35:41;;;;;;;19.83;11.23;;;;;;;;;;4845550;29;20398;-74
2021/12/09 01:38:13;;;;;;;15.77;10.57;;;;;;;;;;4829083;29;20095;-76
2021/12/09 01:40:39;;;;;;;16.20;11.20;;;;;;;;;;4814113;29;20145;-75
2021/12/09 01:43:06;;;;;;;17.80;11.13;;;;;;;;;;4845340;29;20053;-75
2021/12/09 01:45:32;;;;;;;17.05;10.02;;;;;;;;;;4845334;29;20151;-76
2021/12/09 01:47:58;;;;;;;17.98;10.98;;;;;;;;;;4827983;29;20050;-75
2021/12/09 01:50:25;;;;;;;18.02;11.00;;;;;;;;;;4810624;29;20058;-74
2021/12/09 01:52:51;;;;;;;15.55;10.98;;;;;;;;;;4810635;29;20077;-76
2021/12/09 01:55:17;;;;;;;16.38;11.40;;;;;;;;;;4823026;29;20053;-76
2021/12/09 01:57:46;;;;;;;23.40;12.25;;;;;;;;;;4845251;29;20061;-75
2021/12/09 02:00:14;;;;;;;17.33;11.07;;;;;;;;;;4828928;29;20466;-75
2021/12/09 02:02:41;;;;;;;19.15;12.23;;;;;;;;;;4844225;29;20049;-74
2021/12/09 02:05:08;;;;;;;17.92;12.07;;;;;;;;;;4828878;29;20060;-75
2021/12/09 02:07:34;;;;;;;25.25;11.93;;;;;;;;;;4844559;29;20066;-74
2021/12/09 02:10:00;;;;;;;19.55;11.98;;;;;;;;;;4844713;29;20053;-75
2021/12/09 02:12:26;;;;;;;19.55;11.45;;;;;;;;;;4828744;29;20061;-74
2021/12/09 02:14:54;;;;;;;20.85;11.50;;;;;;;;;;4828434;29;20533;-74
2021/12/09 02:17:20;;;;;;;20.02;12.05;;;;;;;;;;4828189;29;20046;-75
2021/12/09 02:19:46;;;;;;;19.50;11.63;;;;;;;;;;4828341;29;20061;-76
2021/12/09 02:22:14;;;;;;;15.98;10.90;;;;;;;;;;4828429;29;20487;-75
2021/12/09 02:24:41;;;;;;;16.08;11.25;;;;;;;;;;4828169;29;20061;-74
2021/12/09 02:27:07;;;;;;;19.35;11.93;;;;;;;;;;4844066;29;20054;-75
2021/12/09 02:29:33;;;;;;;17.17;11.90;;;;;;;;;;4828068;29;20131;-75
2021/12/09 02:32:01;;;;;;;16.13;12.10;;;;;;;;;;4828218;29;20106;-75
2021/12/09 02:34:27;;;;;;;19.02;12.15;;;;;;;;;;4829226;29;20050;-74
2021/12/09 02:36:53;;;;;;;21.55;12.23;;;;;;;;;;4828112;29;20046;-74
2021/12/09 02:39:20;;;;;;;17.60;11.10;;;;;;;;;;4828380;29;20057;-74
2021/12/09 02:41:47;;;;;;;19.13;12.77;;;;;;;;;;4828257;29;20133;-75
2021/12/09 02:44:17;;;;;;;18.52;11.45;;;;;;;;;;4828462;29;20054;-75
2021/12/09 02:46:43;;;;;;;23.45;13.00;;;;;;;;;;4844125;29;20092;-75
2021/12/09 02:49:13;;;;;;;18.33;12.25;;;;;;;;;;4843987;29;20057;-75
2021/12/09 02:51:40;;;;;;;22.58;13.15;;;;;;;;;;4809548;29;20357;-75
2021/12/09 02:54:07;;;;;;;20.08;11.98;;;;;;;;;;4811524;29;20061;-75
2021/12/09 02:56:34;;;;;;;17.92;11.82;;;;;;;;;;4811940;29;20467;-75
2021/12/09 02:59:00;;;;;;;18.83;11.90;;;;;;;;;;4827365;29;20443;-76
2021/12/09 03:01:27;;;;;;;20.02;11.88;;;;;;;;;;4844228;29;20058;-75
2021/12/09 03:03:58;;;;;;;19.98;12.45;;;;;;;;;;4843425;29;20455;-76
2021/12/09 03:06:35;;;;;;;17.27;12.57;;;;;;;;;;4843633;29;20118;-75
2021/12/09 03:09:04;;;;;;;17.77;12.10;;;;;;;;;;4843536;29;20467;-75
2021/12/09 03:11:31;;;;;;;21.45;12.80;;;;;;;;;;4827426;29;20069;-74
2021/12/09 03:13:57;;;;;;;18.10;12.52;;;;;;;;;;4813282;29;20379;-75
2021/12/09 03:16:24;;;;;;;17.52;12.85;;;;;;;;;;4826983;29;20061;-75
2021/12/09 03:18:52;;;;;;;19.65;13.15;;;;;;;;;;4827628;29;20053;-76
2021/12/09 03:21:20;;;;;;;21.38;12.98;;;;;;;;;;4827969;29;20058;-76
2021/12/09 03:23:46;;;;;;;19.60;12.32;;;;;;;;;;4827868;29;20115;-76
2021/12/09 03:26:13;;;;;;;21.67;13.10;;;;;;;;;;4826598;29;20340;-75
2021/12/09 03:28:39;;;;;;;20.10;13.70;;;;;;;;;;4827293;29;20058;-75
2021/12/09 03:31:06;;;;;;;20.50;12.80;;;;;;;;;;4812820;29;20140;-74
2021/12/09 03:33:32;;;;;;;23.83;13.32;;;;;;;;;;4827333;29;20068;-75
2021/12/09 03:35:59;;;;;;;21.88;13.82;;;;;;;;;;4827920;29;20053;-74
2021/12/09 03:38:25;;;;;;;21.98;13.77;;;;;;;;;;4827552;29;20053;-75
2021/12/09 03:40:51;;;;;;;19.60;13.35;;;;;;;;;;4826957;29;20089;-76
2021/12/09 03:43:17;;;;;;;19.27;12.82;;;;;;;;;;4843413;29;20139;-75
2021/12/09 03:45:43;;;;;;;20.65;13.40;;;;;;;;;;4836359;29;20050;-75
2021/12/09 03:48:09;;;;;;;19.50;13.88;;;;;;;;;;4827293;29;20085;-75
2021/12/09 03:50:37;;;;;;;18.48;13.15;;;;;;;;;;4826879;29;20429;-75
2021/12/09 03:53:03;;;;;;;24.30;14.50;;;;;;;;;;4827191;29;20072;-74
2021/12/09 03:55:29;;;;;;;25.92;15.15;;;;;;;;;;4827305;29;20118;-74
2021/12/09 03:57:55;;;;;;;23.40;14.13;;;;;;;;;;4843281;29;20065;-75
2021/12/09 04:00:23;;;;;;;23.85;14.65;;;;;;;;;;4827396;29;20054;-76
2021/12/09 04:02:49;;;;;;;22.58;15.27;;;;;;;;;;4826791;29;20364;-76
2021/12/09 04:05:16;;;;;;;22.50;14.10;;;;;;;;;;4842659;29;20085;-75
2021/12/09 04:07:42;;;;;;;20.13;14.32;;;;;;;;;;4826838;29;20062;-75
2021/12/09 04:10:09;;;;;;;18.58;13.43;;;;;;;;;;4843826;29;20108;-75
2021/12/09 04:12:35;;;;;;;22.77;14.63;;;;;;;;;;4830877;29;20458;-74
2021/12/09 04:15:01;;;;;;;19.58;13.48;;;;;;;;;;4831283;29;20054;-76
2021/12/09 04:17:27;;;;;;;21.30;14.75;;;;;;;;;;4846580;29;20042;-75
2021/12/09 04:19:54;;;;;;;20.92;14.27;;;;;;;;;;4846571;29;20049;-75
2021/12/09 04:22:20;;;;;;;23.63;14.27;;;;;;;;;;4846709;29;20050;-75
2021/12/09 04:24:47;;;;;;;21.45;14.05;;;;;;;;;;4830256;29;20049;-75
2021/12/09 04:27:14;;;;;;;19.70;13.90;;;;;;;;;;4846695;29;20054;-74
2021/12/09 04:29:40;;;;;;;22.38;13.88;;;;;;;;;;4830296;29;20455;-75
2021/12/09 04:32:06;;;;;;;25.08;15.15;;;;;;;;;;4830374;29;20060;-74
2021/12/09 04:34:32;;;;;;;21.35;13.43;;;;;;;;;;4846350;29;20060;-76
2021/12/09 04:36:59;;;;;;;20.75;14.15;;;;;;;;;;4829919;29;20097;-75
2021/12/09 04:39:25;;;;;;;21.65;14.15;;;;;;;;;;4830628;29;20069;-75
2021/12/09 04:41:51;;;;;;;22.65;14.55;;;;;;;;;;4829982;29;20054;-75
2021/12/09 04:44:17;;;;;;;23.63;14.63;;;;;;;;;;4815288;29;20068;-74
2021/12/09 04:46:44;;;;;;;24.02;13.77;;;;;;;;;;4846260;29;20045;-75
2021/12/09 04:49:10;;;;;;;23.75;14.35;;;;;;;;;;4845996;29;20187;-76
2021/12/09 04:51:36;;;;;;;23.70;14.10;;;;;;;;;;4829497;29;20046;-76
2021/12/09 04:54:03;;;;;;;23.63;15.15;;;;;;;;;;4842103;29;20123;-74
2021/12/09 04:56:29;;;;;;;24.27;15.50;;;;;;;;;;4828187;29;20054;-76
2021/12/09 04:58:55;;;;;;;23.02;15.05;;;;;;;;;;4827928;29;20062;-74
2021/12/09 05:01:21;;;;;;;23.65;15.15;;;;;;;;;;4828278;29;20066;-74
2021/12/09 05:03:48;;;;;;;25.02;14.63;;;;;;;;;;4825630;29;20129;-74
2021/12/09 05:06:15;;;;;;;23.83;14.68;;;;;;;;;;4829221;29;20057;-74
2021/12/09 05:08:46;;;;;;;25.17;14.40;;;;;;;;;;4829847;29;20448;-75
2021/12/09 05:11:47;;;;;;;25.85;14.85;;;;;;;;;;4845852;29;20193;-75
2021/12/09 05:14:15;;;;;;;24.25;14.65;;;;;;;;;;4829392;29;20053;-76
2021/12/09 05:16:41;;;;;;;23.48;15.75;;;;;;;;;;4828688;29;20092;-75
2021/12/09 05:19:07;;;;;;;22.30;14.63;;;;;;;;;;4829511;29;20058;-75
2021/12/09 05:21:37;;;;;;;21.70;14.93;;;;;;;;;;4814216;29;20496;-76
2021/12/09 05:24:12;;;;;;;23.17;14.50;;;;;;;;;;4845164;29;20198;-74
2021/12/09 05:26:44;;;;;;;19.48;13.60;;;;;;;;;;4845763;29;20054;-74
2021/12/09 05:29:11;;;;;;;20.83;13.63;;;;;;;;;;4814274;29;20125;-75
2021/12/09 05:34:22;;;;;;;21.92;13.40;;;;;;;;;;4829302;29;20111;-75
2021/12/09 05:36:48;;;;;;;26.92;14.43;;;;;;;;;;4845663;29;20142;-75
2021/12/09 05:39:15;;;;;;;22.02;14.10;;;;;;;;;;4845406;29;20220;-75
2021/12/09 05:41:41;;;;;;;25.25;14.73;;;;;;;;;;4844741;29;20133;-74
2021/12/09 05:44:08;;;;;;;21.45;14.38;;;;;;;;;;4829299;29;20069;-75
2021/12/09 05:46:36;;;;;;;24.20;14.25;;;;;;;;;;4829273;29;20049;-75
2021/12/09 05:49:02;;;;;;;20.63;14.65;;;;;;;;;;4828938;29;20482;-74
2021/12/09 05:51:28;;;;;;;24.42;14.18;;;;;;;;;;4829312;29;20069;-74
2021/12/09 05:53:55;;;;;;;24.52;14.40;;;;;;;;;;4845242;29;20053;-74
2021/12/09 05:56:21;;;;;;;22.67;15.27;;;;;;;;;;4828985;29;20080;-74
2021/12/09 05:58:47;;;;;;;24.65;15.40;;;;;;;;;;4814427;29;20054;-75
2021/12/09 06:01:14;;;;;;;20.95;14.13;;;;;;;;;;4844331;29;20125;-75
2021/12/09 06:03:40;;;;;;;23.58;14.68;;;;;;;;;;4844863;29;20111;-75
2021/12/09 06:06:07;;;;;;;23.50;14.32;;;;;;;;;;4813560;29;20065;-76
2021/12/09 06:08:36;;;;;;;20.92;14.75;;;;;;;;;;4844912;29;20148;-75
2021/12/09 06:11:02;;;;;;;24.95;15.13;;;;;;;;;;4828844;29;20054;-75
2021/12/09 06:13:30;;;;;;;22.40;13.85;;;;;;;;;;4828853;29;20058;-75
2021/12/09 06:15:56;;;;;;;22.60;14.50;;;;;;;;;;4828007;29;20053;-74
2021/12/09 06:18:23;;;;;;;23.73;14.63;;;;;;;;;;4843717;29;20124;-74
2021/12/09 06:20:49;;;;;;;22.30;14.30;;;;;;;;;;4828126;29;20061;-73
2021/12/09 06:23:15;;;;;;;24.48;14.00;;;;;;;;;;4844357;29;20053;-75
2021/12/09 06:25:41;;;;;;;24.33;15.05;;;;;;;;;;4828638;29;20054;-76
2021/12/09 06:28:07;;;;;;;26.50;15.52;;;;;;;;;;4828223;29;20127;-75
2021/12/09 06:30:33;;;;;;;23.30;14.45;;;;;;;;;;4828141;29;20065;-75
2021/12/09 06:33:00;;;;;;;20.40;13.95;;;;;;;;;;4827924;29;20110;-75
2021/12/09 06:35:27;;;;;;;24.05;14.15;;;;;;;;;;4827862;29;20053;-75
2021/12/09 06:37:53;;;;;;;22.42;14.45;;;;;;;;;;4828349;29;20475;-77
2021/12/09 06:40:20;;;;;;;24.40;14.05;;;;;;;;;;4828312;29;20490;-74
2021/12/09 06:42:48;;;;;;;23.05;14.45;;;;;;;;;;4809755;29;20058;-75
2021/12/09 06:45:15;;;;;;;18.70;14.65;;;;;;;;;;4826938;29;20440;-75
2021/12/09 06:47:41;;;;;;;22.50;15.05;;;;;;;;;;4839925;29;20060;-75
2021/12/09 06:50:09;;;;;;;23.20;14.40;;;;;;;;;;4842235;29;20049;-75
2021/12/09 06:52:35;;;;;;;28.40;15.45;;;;;;;;;;4843403;29;20479;-75
2021/12/09 06:55:01;;;;;;;26.67;15.00;;;;;;;;;;4828167;29;20064;-75
2021/12/09 06:57:27;;;;;;;27.80;14.70;;;;;;;;;;4843346;29;20096;-74
2021/12/09 06:59:53;;;;;;;21.75;14.32;;;;;;;;;;4844013;29;20053;-75
2021/12/09 07:02:19;;;;;;;24.02;13.88;;;;;;;;;;4843671;29;20056;-75
2021/12/09 07:04:45;;;;;;;23.58;15.68;;;;;;;;;;4844195;29;20143;-75
2021/12/09 07:07:11;;;;;;;27.90;15.15;;;;;;;;;;4843454;29;20073;-75
2021/12/09 07:09:38;;;;;;;27.52;15.82;;;;;;;;;;4828144;29;20080;-77
2021/12/09 07:12:04;;;;;;;22.00;13.82;;;;;;;;;;4844287;29;20105;-75
2021/12/09 07:14:30;;;;;;;24.77;15.25;;;;;;;;;;4827483;29;20050;-74
2021/12/09 07:16:57;;;;;;;23.38;14.65;;;;;;;;;;4827673;29;20054;-76
2021/12/09 07:19:23;;;;;;;21.75;14.45;;;;;;;;;;4843881;29;20049;-75
2021/12/09 07:21:49;;;;;;;21.90;13.23;;;;;;;;;;4826836;29;20057;-76
2021/12/09 07:24:15;;;;;;;22.02;14.00;;;;;;;;;;4843864;29;20061;-74
2021/12/09 07:26:41;;;;;;;19.00;13.45;;;;;;;;;;4843279;29;20371;-75
2021/12/09 07:29:07;;;;;;;24.60;14.88;;;;;;;;;;4827364;29;20081;-76
2021/12/09 07:31:35;;;;;;;22.90;14.25;;;;;;;;;;4826616;29;20054;-75
2021/12/09 07:34:01;;;;;;;25.05;14.57;;;;;;;;;;4827639;29;20053;-75
2021/12/09 07:36:27;;;;;;;24.35;15.07;;;;;;;;;;4843044;29;20050;-75
2021/12/09 07:38:53;;;;;;;24.98;14.85;;;;;;;;;;4842403;29;20467;-76
2021/12/09 07:41:21;;;;;;;24.75;15.00;;;;;;;;;;4827100;29;20054;-74
2021/12/09 07:43:49;;;;;;;22.20;13.48;;;;;;;;;;4812626;29;20145;-75
2021/12/09 07:46:16;;;;;;;26.02;14.35;;;;;;;;;;4843158;29;20072;-74
2021/12/09 07:48:42;;;;;;;36.47;17.80;;;;;;;;;;4827877;29;20054;-75
2021/12/09 07:51:08;;;;;;;32.85;15.98;;;;;;;;;;4842965;29;20062;-73
2021/12/09 07:53:34;;;;;;;29.80;15.25;;;;;;;;;;4827212;29;20511;-74
2021/12/09 07:56:00;;;;;;;25.70;15.10;;;;;;;;;;4835981;29;20364;-72
2021/12/09 07:58:26;;;;;;;25.48;13.68;;;;;;;;;;4827482;29;20046;-73
2021/12/09 08:00:52;;;;;;;26.73;13.88;;;;;;;;;;4826767;29;20049;-74
2021/12/09 08:03:18;;;;;;;27.92;14.10;;;;;;;;;;4826732;29;20061;-75
2021/12/09 08:05:47;;;;;;;27.33;14.93;;;;;;;;;;4826789;29;20050;-76
2021/12/09 08:08:13;;;;;;;35.13;17.48;;;;;;;;;;4826856;29;20085;-75
2021/12/09 08:10:40;;;;;;;31.55;15.27;;;;;;;;;;4842856;29;20473;-75
2021/12/09 08:13:07;;;;;;;27.15;15.05;;;;;;;;;;4827021;29;20062;-76
2021/12/09 08:15:35;;;;;;;29.35;15.02;;;;;;;;;;4826372;29;20078;-77
2021/12/09 08:18:14;;;;;;;26.08;13.43;;;;;;;;;;4826677;29;20375;-76
2021/12/09 08:20:40;;;;;;;21.80;12.55;;;;;;;;;;4826403;29;20150;-75
2021/12/09 08:23:07;;;;;;;18.90;12.15;;;;;;;;;;4827060;29;20344;-77
2021/12/09 08:25:33;;;;;;;24.33;13.75;;;;;;;;;;4826915;29;20061;-73
2021/12/09 08:27:59;;;;;;;20.98;12.73;;;;;;;;;;4826806;29;20486;-75
2021/12/09 08:30:26;;;;;;;23.95;12.70;;;;;;;;;;4827017;29;20058;-75
2021/12/09 08:32:52;;;;;;;24.27;12.25;;;;;;;;;;4826272;29;20049;-76
2021/12/09 08:35:19;;;;;;;21.75;12.15;;;;;;;;;;4826409;29;20452;-74
2021/12/09 08:37:46;;;;;;;23.65;12.80;;;;;;;;;;4825656;29;20195;-74
2021/12/09 08:40:13;;;;;;;21.13;12.35;;;;;;;;;;4822049;29;20049;-74
2021/12/09 08:42:40;;;;;;;19.15;11.38;;;;;;;;;;4821771;29;20127;-75
2021/12/09 08:45:10;;;;;;;20.20;11.73;;;;;;;;;;4807445;29;20118;-75
2021/12/09 08:47:37;;;;;;;20.85;11.85;;;;;;;;;;4809044;29;20065;-75
2021/12/09 08:50:04;;;;;;;19.25;11.30;;;;;;;;;;4826305;29;20058;-75
2021/12/09 08:52:30;;;;;;;18.33;12.02;;;;;;;;;;4833785;29;20058;-74
2021/12/09 08:54:56;;;;;;;18.73;11.40;;;;;;;;;;4827260;29;20054;-73
2021/12/09 08:57:23;;;;;;;20.02;11.07;;;;;;;;;;4842261;29;20053;-76
2021/12/09 08:59:49;;;;;;;22.33;12.15;;;;;;;;;;4826125;29;20051;-76
2021/12/09 09:02:17;;;;;;;23.08;11.57;;;;;;;;;;4829595;29;20419;-76
2021/12/09 09:04:45;;;;;;;19.40;11.13;;;;;;;;;;4840969;29;20119;-74
2021/12/09 09:07:11;;;;;;;19.65;10.95;;;;;;;;;;4811816;29;20089;-74
2021/12/09 09:09:38;;;;;;;19.15;11.63;;;;;;;;;;4811764;29;20064;-74
2021/12/09 09:12:06;;;;;;;24.45;11.50;;;;;;;;;;4819302;29;20130;-73
2021/12/09 09:14:32;;;;;;;17.42;11.32;;;;;;;;;;4826002;29;20096;-75
2021/12/09 09:16:59;;;;;;;20.45;11.20;;;;;;;;;;4829562;29;20368;-73
2021/12/09 09:19:25;;;;;;;20.92;11.45;;;;;;;;;;4844083;29;20089;-74
2021/12/09 09:21:51;;;;;;;22.48;11.48;;;;;;;;;;4829770;29;20046;-73
2021/12/09 09:24:18;;;;;;;21.52;11.18;;;;;;;;;;4825340;29;20125;-74
2021/12/09 09:26:44;;;;;;;17.60;10.50;;;;;;;;;;4811354;29;20062;-75
2021/12/09 09:29:10;;;;;;;21.40;11.15;;;;;;;;;;4831772;29;20061;-73
2021/12/09 09:31:36;;;;;;;20.92;12.43;;;;;;;;;;4822346;29;20042;-73
2021/12/09 09:34:03;;;;;;;22.50;12.10;;;;;;;;;;4827537;29;20074;-74
2021/12/09 09:36:33;;;;;;;21.42;11.95;;;;;;;;;;4826110;29;20427;-76
2021/12/09 09:39:06;;;;;;;27.63;13.23;;;;;;;;;;4816955;29;20049;-76
2021/12/09 09:41:36;;;;;;;25.70;11.20;;;;;;;;;;4829255;29;20128;-74
2021/12/09 09:44:12;;;;;;;18.10;9.88;;;;;;;;;;4844129;29;20049;-75
2021/12/09 09:46:38;;;;;;;18.52;10.05;;;;;;;;;;4828709;29;20053;-74
2021/12/09 09:49:06;;;;;;;17.58;10.63;;;;;;;;;;4814416;29;20112;-74
2021/12/09 09:51:34;;;;;;;16.13;9.98;;;;;;;;;;4832112;29;20065;-76
2021/12/09 09:54:01;;;;;;;17.67;10.07;;;;;;;;;;4828442;29;20119;-76
2021/12/09 09:56:28;;;;;;;17.70;10.73;;;;;;;;;;4828707;29;20068;-74
2021/12/09 09:58:59;;;;;;;18.20;9.98;;;;;;;;;;4830924;29;20379;-75
2021/12/09 10:01:26;;;;;;;19.45;9.93;;;;;;;;;;4821864;29;20066;-73
2021/12/09 10:03:59;;;;;;;21.70;10.70;;;;;;;;;;4828946;29;20057;-75
2021/12/09 10:06:25;;;;;;;17.02;10.05;;;;;;;;;;4827324;29;20506;-76
2021/12/09 10:08:51;;;;;;;16.02;9.88;;;;;;;;;;4828627;29;20065;-74
2021/12/09 10:11:17;;;;;;;15.45;9.45;;;;;;;;;;4829165;29;20122;-74
2021/12/09 10:13:44;;;;;;;19.92;10.30;;;;;;;;;;4826461;29;20073;-74
2021/12/09 10:16:28;;;;;;;17.75;10.10;;;;;;;;;;4827745;29;20129;-76
2021/12/09 10:18:54;;;;;;;19.27;10.88;;;;;;;;;;4823331;29;20149;-75
2021/12/09 10:21:22;;;;;;;16.25;10.20;;;;;;;;;;4814149;29;20058;-76
2021/12/09 10:23:56;;;;;;;16.83;9.85;;;;;;;;;;4817530;29;20054;-75
2021/12/09 10:26:24;;;;;;;15.20;10.13;;;;;;;;;;4838358;29;20471;-75
2021/12/09 10:28:55;;;;;;;19.73;11.18;;;;;;;;;;4810495;29;20047;-74
2021/12/09 10:31:27;;;;;;;18.35;11.02;;;;;;;;;;4821508;29;20054;-75
2021/12/09 10:34:14;;;;;;;16.85;10.65;;;;;;;;;;4803294;29;20061;-74
2021/12/09 10:36:43;;;;;;;20.55;11.23;;;;;;;;;;4806227;29;20348;-77
2021/12/09 10:39:18;;;;;;;20.08;11.57;;;;;;;;;;4810102;29;20058;-75
2021/12/09 10:41:44;;;;;;;20.43;11.57;;;;;;;;;;4826454;29;20129;-75
2021/12/09 10:44:11;;;;;;;19.80;12.23;;;;;;;;;;4803627;29;20054;-75
2021/12/09 10:46:49;;;;;;;23.48;12.15;;;;;;;;;;4809365;29;20061;-75
2021/12/09 10:49:17;;;;;;;23.40;12.45;;;;;;;;;;4800067;29;20050;-76
2021/12/09 10:51:55;;;;;;;24.48;13.57;;;;;;;;;;4810396;29;20050;-76
2021/12/09 10:54:35;;;;;;;24.30;13.27;;;;;;;;;;4804903;29;20126;-75
2021/12/09 10:57:20;;;;;;;23.13;13.65;;;;;;;;;;4801768;29;20086;-77
2021/12/09 10:59:46;;;;;;;20.83;13.10;;;;;;;;;;4797706;29;20680;-76
2021/12/09 11:02:13;;;;;;;24.83;13.52;;;;;;;;;;4813065;29;20073;-77
2021/12/09 11:04:39;;;;;;;23.52;13.15;;;;;;;;;;4809009;29;20046;-75
2021/12/09 11:07:26;;;;;;;20.55;11.88;;;;;;;;;;4809061;29;20506;-76
2021/12/09 11:10:12;;;;;;;23.15;12.80;;;;;;;;;;4809361;29;20464;-74
2021/12/09 11:12:38;;;;;;;21.40;12.63;;;;;;;;;;4823954;29;20463;-76
2021/12/09 11:15:05;;;;;;;24.92;12.50;;;;;;;;;;4809539;29;20060;-75
2021/12/09 11:17:37;;;;;;;25.70;14.07;;;;;;;;;;4804917;29;20079;-75
2021/12/09 11:20:04;;;;;;;25.50;15.23;;;;;;;;;;4805117;29;20050;-75
2021/12/09 11:22:33;;;;;;;26.55;13.77;;;;;;;;;;4825692;29;20050;-75
2021/12/09 11:25:03;;;;;;;26.55;15.23;;;;;;;;;;4809272;29;20058;-73
2021/12/09 11:27:30;;;;;;;26.48;15.05;;;;;;;;;;4808399;29;20155;-75
2021/12/09 11:30:08;;;;;;;34.00;16.30;;;;;;;;;;4825532;29;20047;-77
2021/12/09 11:32:49;;;;;;;32.65;16.15;;;;;;;;;;4809390;29;20054;-74
2021/12/09 11:35:20;;;;;;;33.53;16.23;;;;;;;;;;4825381;29;20055;-76
2021/12/09 11:40:34;;;;;;;29.63;15.90;;;;;;;;;;4826884;29;20058;-80
2021/12/09 11:43:02;;;;;;;28.58;15.35;;;;;;;;;;4802975;29;20050;-75
2021/12/09 11:45:33;;;;;;;28.17;15.77;;;;;;;;;;4809567;29;20055;-77
2021/12/09 11:47:59;;;;;;;31.25;16.23;;;;;;;;;;4802255;29;20051;-76
2021/12/09 11:50:30;;;;;;;30.10;15.02;;;;;;;;;;4795405;29;20070;-75
2021/12/09 11:52:57;;;;;;;29.90;15.52;;;;;;;;;;4824015;29;20051;-79
2021/12/09 11:55:30;;;;;;;28.25;16.35;;;;;;;;;;4809109;29;20057;-77
2021/12/09 11:58:01;;;;;;;32.15;16.23;;;;;;;;;;4811778;29;20080;-75
2021/12/09 12:12:00;;;;;;;30.88;15.55;;;;;;;;;;4808819;29;20086;-75
2021/12/09 12:14:31;;;;;;;28.15;15.20;;;;;;;;;;4794447;29;20054;-75
2021/12/09 12:25:48;;;;;;;22.52;13.77;;;;;;;;;;4751437;30;20115;-76
2021/12/09 12:28:27;;;;;;;25.05;14.30;;;;;;;;;;4797566;29;20161;-75
2021/12/09 12:34:49;;;;;;;30.88;15.13;;;;;;;;;;4827099;29;20054;-78
2021/12/09 12:42:16;;;;;;;32.15;16.45;;;;;;;;;;4828294;29;20057;-76
2021/12/09 12:45:02;;;;;;;28.77;15.20;;;;;;;;;;4798068;29;20068;-75
2021/12/09 12:47:36;;;;;;;29.67;14.50;;;;;;;;;;4811894;29;20054;-75
2021/12/09 12:50:10;;;;;;;24.77;14.88;;;;;;;;;;4797049;29;20420;-77
2021/12/09 12:52:38;;;;;;;26.80;14.82;;;;;;;;;;4812163;29;20061;-75
2021/12/09 12:55:12;;;;;;;24.48;14.40;;;;;;;;;;4825627;29;20058;-78
2021/12/09 12:57:44;;;;;;;24.73;14.48;;;;;;;;;;4810592;29;20050;-78
2021/12/09 13:00:24;;;;;;;25.60;14.93;;;;;;;;;;4811749;29;20053;-75
2021/12/09 13:10:28;;;;;;;26.98;15.13;;;;;;;;;;4793681;29;20061;-77
2021/12/09 13:13:06;;;;;;;31.48;16.25;;;;;;;;;;4793559;29;20059;-76
2021/12/09 13:15:43;;;;;;;26.52;14.63;;;;;;;;;;4816218;29;20069;-76
2021/12/09 13:18:30;;;;;;;27.35;15.80;;;;;;;;;;4827637;29;20435;-76
2021/12/09 13:20:56;;;;;;;;;;;;;;;;;;4812009;29;20058;-75
2021/12/09 13:23:25;;;;;;;25.10;14.07;;;;;;;;;;4811071;29;19921;-76
2021/12/09 13:26:10;;;;;;;25.65;15.07;;;;;;;;;;4793736;29;20065;-76
2021/12/09 13:28:51;;;;;;;30.65;15.88;;;;;;;;;;4811535;29;20104;-79
2021/12/09 13:31:43;;;;;;;28.00;15.80;;;;;;;;;;4811314;29;20054;-77
2021/12/09 13:34:19;;;;;;;26.63;15.80;;;;;;;;;;4811316;29;20081;-78
2021/12/09 13:37:06;;;;;;;26.52;15.65;;;;;;;;;;4825368;29;20399;-77
2021/12/09 13:40:16;;;;;;;28.13;16.05;;;;;;;;;;4811363;29;20141;-77
2021/12/09 13:48:14;;;;;;;28.15;16.02;;;;;;;;;;4811055;29;20054;-74
2021/12/09 13:51:00;;;;;;;30.73;15.10;;;;;;;;;;4822307;29;20096;-76
2021/12/09 13:56:11;;;;;;;28.38;16.23;;;;;;;;;;4826733;29;20054;-76
2021/12/09 13:58:37;;;;;;;31.23;17.15;;;;;;;;;;4809020;29;20095;-75
2021/12/09 14:01:04;;;;;;;29.63;15.90;;;;;;;;;;4809809;29;20046;-75
2021/12/09 14:03:31;;;;;;;25.88;16.05;;;;;;;;;;4826887;29;20065;-75
2021/12/09 14:05:59;;;;;;;31.63;17.58;;;;;;;;;;4809819;29;20057;-74
2021/12/09 14:08:32;;;;;;;29.35;15.43;;;;;;;;;;4810719;29;20050;-78
2021/12/09 14:11:04;;;;;;;30.30;16.13;;;;;;;;;;4809362;29;20086;-76
2021/12/09 14:13:33;;;;;;;30.25;17.13;;;;;;;;;;4809857;29;20050;-75
2021/12/09 14:16:07;;;;;;;32.20;16.52;;;;;;;;;;4810171;29;20055;-76
2021/12/09 14:21:10;;;;;;;39.92;17.85;;;;;;;;;;4809396;29;20046;-80
2021/12/09 14:23:36;;;;;;;30.35;17.40;;;;;;;;;;4825952;29;20046;-76
2021/12/09 14:26:04;;;;;;;30.65;17.48;;;;;;;;;;4810548;29;20054;-77
2021/12/09 14:28:32;;;;;;;30.33;16.77;;;;;;;;;;4795355;29;20043;-75
2021/12/09 14:30:59;;;;;;;29.23;17.30;;;;;;;;;;4791828;29;20200;-77
2021/12/09 14:33:25;;;;;;;33.63;18.00;;;;;;;;;;4792187;29;20130;-77
2021/12/09 14:35:58;;;;;;;30.98;17.17;;;;;;;;;;4822076;29;20054;-76
2021/12/09 14:38:24;;;;;;;29.35;17.42;;;;;;;;;;4795871;29;20055;-76
2021/12/09 14:40:57;;;;;;;30.10;17.42;;;;;;;;;;4792152;29;20111;-78
2021/12/09 14:43:24;;;;;;;32.60;18.20;;;;;;;;;;4792164;29;20540;-78
2021/12/09 14:45:53;;;;;;;31.10;17.48;;;;;;;;;;4797017;29;20390;-76
2021/12/09 14:48:27;;;;;;;31.92;17.92;;;;;;;;;;4809531;29;20072;-76
2021/12/09 14:50:53;;;;;;;28.55;16.65;;;;;;;;;;4812258;29;20046;-75
2021/12/09 14:53:31;;;;;;;29.42;17.83;;;;;;;;;;4826497;29;20448;-76
2021/12/09 14:55:57;;;;;;;29.88;17.90;;;;;;;;;;4823964;29;20057;-76
2021/12/09 14:58:23;;;;;;;29.25;16.27;;;;;;;;;;4825162;29;20486;-76
2021/12/09 15:01:01;;;;;;;31.95;16.48;;;;;;;;;;4799848;29;20119;-75
2021/12/09 15:03:37;;;;;;;30.77;16.75;;;;;;;;;;4806798;29;20051;-78
2021/12/09 15:06:03;;;;;;;31.48;17.35;;;;;;;;;;4806829;29;20062;-76
2021/12/09 15:08:31;;;;;;;27.95;16.38;;;;;;;;;;4806590;29;20046;-77
2021/12/09 15:10:59;;;;;;;30.83;17.75;;;;;;;;;;4825372;29;20437;-75
2021/12/09 15:13:27;;;;;;;29.83;16.58;;;;;;;;;;4825510;29;20046;-76
2021/12/09 15:16:06;;;;;;;30.40;16.88;;;;;;;;;;4806782;29;20121;-76
2021/12/09 15:18:34;;;;;;;31.42;16.25;;;;;;;;;;4808829;29;20118;-75